Time;durP1;ratioP1;P1;durP2;ratioP2;P2;SDS_P1;SDS_P2;PMS_P1;PMS_P2;Temp;Humidity;BMP_temperature;BMP_pressure;BME280_temperature;BME280_humidity;BME280_pressure;Samples;Min_cycle;Max_cycle;Signal;HPM_P1;HPM_P2
2024/01/16 00:02:49;;;;;;;;;48.25;39.00;;;;;9.35;73.18;99930.31;146616;576;46918;-68
2024/01/16 00:05:55;;;;;;;;;55.00;41.00;;;;;9.28;73.44;99933.44;146615;585;46020;-68
2024/01/16 00:08:50;;;;;;;;;53.00;43.50;;;;;9.23;73.46;99928.97;146617;607;46016;-66
2024/01/16 00:11:57;;;;;;;;;56.00;44.75;;;;;8.13;72.85;99743.13;146615;592;46020;-69
2024/01/16 00:15:13;;;;;;;;;55.50;43.50;;;;;8.42;72.64;99790.94;146614;572;46016;-67
2024/01/16 00:18:34;;;;;;;;;56.25;44.25;;;;;9.19;73.31;99934.81;146618;564;46021;-67
2024/01/16 00:21:34;;;;;;;;;50.50;41.00;;;;;9.20;73.56;99951.22;146613;636;46016;-69
2024/01/16 00:24:33;;;;;;;;;67.75;51.25;;;;;9.16;73.77;99952.78;146616;682;46012;-70
2024/01/16 00:27:32;;;;;;;;;51.75;41.00;;;;;9.11;73.79;99962.03;146616;564;47012;-67
2024/01/16 00:30:36;;;;;;;;;46.75;37.25;;;;;9.05;73.64;99969.53;146613;650;47010;-67
2024/01/16 00:33:28;;;;;;;;;52.00;41.50;;;;;8.95;74.86;99960.47;146615;581;46017;-65
2024/01/16 00:36:30;;;;;;;;;101.33;90.00;;;;;8.86;74.21;99951.41;146619;569;46020;-66
2024/01/16 00:39:25;;;;;;;;;90.33;81.00;;;;;8.81;74.21;99955.47;146620;604;46017;-68
2024/01/16 00:42:32;;;;;;;;;54.50;44.00;;;;;8.75;74.56;99940.56;146619;717;46020;-68
2024/01/16 00:45:29;;;;;;;;;47.75;39.50;;;;;8.68;74.66;99948.88;146613;580;47012;-68
2024/01/16 00:48:32;;;;;;;;;52.25;41.75;;;;;8.62;74.83;99954.63;146618;581;46010;-67
2024/01/16 00:51:29;;;;;;;;;49.75;41.25;;;;;8.56;74.43;99954.34;146612;580;47016;-67
2024/01/16 00:54:30;;;;;;;;;55.25;43.50;;;;;8.54;74.13;99961.16;146614;625;46021;-68
2024/01/16 00:57:24;;;;;;;;;44.50;37.50;;;;;8.44;74.89;99948.59;146615;598;46012;-66
2024/01/16 01:00:30;;;;;;;;;49.50;39.25;;;;;8.31;73.73;99947.09;146618;583;46032;-66
2024/01/16 01:03:24;;;;;;;;;71.75;55.25;;;;;8.22;74.69;99949.25;146614;584;46016;-67
2024/01/16 01:06:19;;;;;;;;;46.75;39.00;;;;;8.18;75.08;99949.91;146615;618;46020;-66
2024/01/16 01:09:11;;;;;;;;;50.00;40.50;;;;;8.07;74.82;99941.66;146617;570;46017;-66
2024/01/16 01:12:06;;;;;;;;;50.75;41.00;;;;;7.97;74.80;99942.00;146617;607;46012;-66
2024/01/16 01:14:58;;;;;;;;;57.00;45.75;;;;;7.89;74.92;99940.75;146615;609;46016;-67
2024/01/16 01:17:56;;;;;;;;;49.75;39.50;;;;;7.80;74.93;99944.66;146619;621;46021;-66
2024/01/16 01:21:01;;;;;;;;;53.25;43.00;;;;;7.75;75.42;99940.06;146616;564;46014;-66
2024/01/16 01:23:58;;;;;;;;;47.00;36.50;;;;;7.72;75.79;99933.03;146620;569;45020;-66
2024/01/16 01:27:06;;;;;;;;;;;;;;;;;;;;;
2024/01/16 01:30:10;;;;;;;;;60.00;47.00;;;;;7.68;77.11;99925.09;146616;571;46020;-66
2024/01/16 01:33:07;;;;;;;;;48.25;38.75;;;;;7.65;76.63;99928.41;146614;658;46916;-67
2024/01/16 01:36:11;;;;;;;;;46.25;37.75;;;;;7.61;77.42;99914.47;146618;564;46020;-68
2024/01/16 01:39:08;;;;;;;;;42.00;35.00;;;;;7.57;77.74;99922.88;146615;692;46516;-66
2024/01/16 01:42:09;;;;;;;;;47.25;36.25;;;;;7.56;77.70;99925.34;146617;579;46020;-67
2024/01/16 01:45:04;;;;;;;;;45.75;38.25;;;;;7.58;77.26;99923.75;146615;608;46017;-65
2024/01/16 01:48:09;;;;;;;;;56.50;45.25;;;;;7.61;77.11;99919.63;146617;670;46021;-66
2024/01/16 01:51:20;;;;;;;;;;;;;;;;;;;;;
2024/01/16 01:54:23;;;;;;;;;48.00;37.75;;;;;7.63;76.55;99919.69;146619;572;46010;-65
2024/01/16 01:57:21;;;;;;;;;46.75;37.75;;;;;7.65;77.78;99915.50;146613;602;47014;-65
2024/01/16 02:00:21;;;;;;;;;48.75;39.00;;;;;7.76;78.30;99910.88;146620;564;46013;-65
2024/01/16 02:03:19;;;;;;;;;51.25;41.50;;;;;7.78;78.10;99906.66;146615;600;47012;-66
2024/01/16 02:06:17;;;;;;;;;46.75;36.25;;;;;7.78;77.90;99901.50;146619;572;46010;-66
2024/01/16 02:09:28;;;;;;;;;40.00;33.75;;;;;7.72;76.91;99909.81;146614;601;46017;-65
2024/01/16 02:12:26;;;;;;;;;47.25;35.00;;;;;7.68;77.15;99919.94;146613;627;46020;-66
2024/01/16 02:15:22;;;;;;;;;42.75;34.75;;;;;7.68;77.11;99923.38;146615;733;46016;-65
2024/01/16 02:18:24;;;;;;;;;39.75;32.25;;;;;7.65;78.49;99912.91;146617;565;46010;-65
2024/01/16 02:21:32;;;;;;;;;42.75;35.00;;;;;7.60;77.43;99912.69;146615;577;46012;-65
2024/01/16 02:24:24;;;;;;;;;37.25;30.50;;;;;7.57;78.19;99919.38;146616;570;46010;-66
2024/01/16 02:27:27;;;;;;;;;37.25;32.75;;;;;7.53;76.96;99925.19;146616;622;46016;-65
2024/01/16 02:30:21;;;;;;;;;37.75;33.75;;;;;7.49;77.52;99933.59;146617;579;46021;-67
2024/01/16 02:33:16;;;;;;;;;35.25;30.25;;;;;7.50;77.30;99945.69;146614;613;46016;-65
2024/01/16 02:36:32;;;;;;;;;45.50;36.75;;;;;7.52;77.56;99941.50;146617;687;46020;-66
2024/01/16 02:39:52;;;;;;;;;42.00;34.00;;;;;6.74;76.17;99813.75;146611;579;47013;-67
2024/01/16 02:42:44;;;;;;;;;37.00;32.50;;;;;7.51;77.19;99957.78;146617;608;47010;-67
2024/01/16 02:45:51;;;;;;;;;40.75;34.25;;;;;7.44;76.57;99958.25;146614;576;46016;-67
2024/01/16 02:48:45;;;;;;;;;45.50;34.50;;;;;7.34;77.14;99957.78;146612;638;48020;-67
2024/01/16 02:51:46;;;;;;;;;40.75;32.25;;;;;7.27;76.63;99962.56;146605;575;47918;-67
2024/01/16 02:54:55;;;;;;;;;34.50;31.00;;;;;7.20;77.27;99958.78;146621;616;46010;-68
2024/01/16 02:57:47;;;;;;;;;40.00;33.75;;;;;7.15;77.70;99961.09;146609;569;46012;-67
2024/01/16 03:00:53;;;;;;;;;37.50;30.25;;;;;7.10;77.11;99954.84;146618;569;47011;-68
2024/01/16 03:03:50;;;;;;;;;37.00;33.25;;;;;7.08;77.92;99960.72;146612;723;48016;-67
2024/01/16 03:06:45;;;;;;;;;35.50;30.50;;;;;7.02;78.04;99970.69;146622;564;45020;-68
2024/01/16 03:09:47;;;;;;;;;35.75;31.00;;;;;6.99;78.27;99966.25;146616;597;46016;-67
2024/01/16 03:12:40;;;;;;;;;39.00;31.75;;;;;6.96;77.82;99954.91;146617;569;46010;-67
2024/01/16 03:15:44;;;;;;;;;35.75;30.00;;;;;6.92;77.76;99952.16;146615;648;46017;-68
2024/01/16 03:18:57;;;;;;;;;;;;;;;;;;;;;
2024/01/16 03:22:04;;;;;;;;;30.00;28.00;;;;;6.89;78.14;99956.28;146617;569;46039;-68
2024/01/16 03:25:00;;;;;;;;;34.00;29.75;;;;;6.87;78.15;99955.31;146619;621;46010;-66
2024/01/16 03:28:07;;;;;;;;;;;;;;;;;;;;;
2024/01/16 03:31:13;;;;;;;;;54.00;41.75;;;;;6.79;77.95;99967.78;146618;627;46033;-67
2024/01/16 03:34:10;;;;;;;;;30.25;26.00;;;;;6.80;78.57;99969.56;146614;627;46012;-68
2024/01/16 03:37:04;;;;;;;;;28.50;24.75;;;;;6.76;78.50;99974.44;146619;610;46013;-68
2024/01/16 03:39:59;;;;;;;;;55.75;45.25;;;;;6.72;78.20;99992.31;146613;578;46017;-68
2024/01/16 03:43:02;;;;;;;;;32.25;29.75;;;;;6.74;78.00;99986.37;146618;581;46010;-67
2024/01/16 03:45:54;;;;;;;;;46.50;35.50;;;;;6.75;78.54;99993.28;146613;586;46017;-67
2024/01/16 03:48:51;;;;;;;;;31.50;27.50;;;;;6.78;78.86;99975.41;146617;611;47020;-66
2024/01/16 03:51:57;;;;;;;;;36.00;31.25;;;;;6.83;77.98;99994.59;146616;601;46013;-67
2024/01/16 03:55:00;;;;;;;;;36.50;31.50;;;;;6.86;78.74;99995.66;146619;818;47010;-68
2024/01/16 03:57:52;;;;;;;;;48.25;38.50;;;;;6.93;79.54;99997.75;146615;599;46016;-68
2024/01/16 04:00:54;;;;;;;;;42.00;36.00;;;;;7.02;78.77;100001.62;146619;598;46021;-68
2024/01/16 04:03:52;;;;;;;;;38.00;33.25;;;;;7.08;78.99;99997.69;146614;635;46016;-67
2024/01/16 04:06:46;;;;;;;;;40.25;32.25;;;;;7.11;79.24;100009.84;146618;627;46020;-68
2024/01/16 04:09:42;;;;;;;;;34.75;31.75;;;;;7.09;81.63;100012.34;146614;630;46016;-69
2024/01/16 04:12:55;;;;;;;;;34.75;31.00;;;;;7.05;79.83;100007.84;146617;565;46020;-67
2024/01/16 04:16:03;;;;;;;;;;;;;;;;;;;;;
2024/01/16 04:19:03;;;;;;;;;37.00;32.75;;;;;7.11;79.66;100009.84;146616;695;46010;-69
2024/01/16 04:21:59;;;;;;;;;34.75;29.25;;;;;7.09;79.25;100017.50;146617;594;46017;-69
2024/01/16 04:24:56;;;;;;;;;77.67;68.33;;;;;7.06;79.36;100022.50;146618;596;46020;-70
2024/01/16 04:27:51;;;;;;;;;41.25;33.75;;;;;7.06;79.10;100019.91;146619;590;47016;-67
2024/01/16 04:30:44;;;;;;;;;30.00;28.50;;;;;7.02;79.85;100015.41;146620;710;46010;-67
2024/01/16 04:33:36;;;;;;;;;42.50;32.00;;;;;6.98;80.37;100040.91;146616;582;46012;-67
2024/01/16 04:36:33;;;;;;;;;39.75;33.00;;;;;6.91;79.87;100034.53;146618;613;46020;-67
2024/01/16 04:39:38;;;;;;;;;40.50;34.25;;;;;6.90;79.57;100041.38;146604;668;47918;-66
2024/01/16 04:42:35;;;;;;;;;43.00;35.25;;;;;6.89;79.26;100036.16;146618;609;46010;-67
2024/01/16 04:45:39;;;;;;;;;34.00;30.75;;;;;6.84;79.27;100038.47;146617;569;46014;-67
2024/01/16 04:48:56;;;;;;;;;34.75;30.75;;;;;6.80;79.75;100025.34;146616;587;46012;-67
2024/01/16 04:51:59;;;;;;;;;46.50;37.50;;;;;6.78;79.39;100042.41;146615;606;47012;-68
2024/01/16 04:54:57;;;;;;;;;34.00;31.50;;;;;6.75;79.94;100047.41;146612;569;47020;-67
2024/01/16 04:58:04;;;;;;;;;35.50;31.25;;;;;5.74;78.31;99888.13;146616;625;47012;-66
2024/01/16 05:00:59;;;;;;;;;39.75;32.00;;;;;6.55;79.65;100046.28;146617;638;46020;-67
2024/01/16 05:04:00;;;;;;;;;36.00;30.50;;;;;6.54;79.25;100060.87;146617;574;47012;-67
2024/01/16 05:07:00;;;;;;;;;38.75;33.50;;;;;6.54;80.33;100055.72;146618;566;47050;-67
2024/01/16 05:09:52;;;;;;;;;33.50;29.25;;;;;6.53;81.54;100071.06;146616;578;46014;-67
2024/01/16 05:12:55;;;;;;;;;35.75;32.00;;;;;6.49;81.49;100075.16;146614;601;47020;-67
2024/01/16 05:15:51;;;;;;;;;38.25;33.00;;;;;6.50;81.50;100082.06;146614;580;47012;-68
2024/01/16 05:18:52;;;;;;;;;42.75;33.00;;;;;6.53;82.35;100083.94;146617;639;46020;-67
2024/01/16 05:21:57;;;;;;;;;33.00;30.50;;;;;6.57;82.10;100083.31;146613;606;47013;-68
2024/01/16 05:25:08;;;;;;;;;40.00;33.00;;;;;6.61;81.29;100082.72;146620;596;45020;-66
2024/01/16 05:28:01;;;;;;;;;39.75;33.50;;;;;6.67;82.32;100090.78;146612;598;46016;-68
2024/01/16 05:30:58;;;;;;;;;37.00;31.25;;;;;6.70;82.69;100097.00;146616;599;46017;-67
2024/01/16 05:33:59;;;;;;;;;34.00;30.50;;;;;6.79;81.80;100106.00;146615;597;46016;-67
2024/01/16 05:36:57;;;;;;;;;45.75;36.50;;;;;6.87;81.67;100105.66;146618;602;46021;-68
2024/01/16 05:39:55;;;;;;;;;46.50;38.00;;;;;6.96;80.94;100106.97;146610;575;46023;-68
2024/01/16 05:42:59;;;;;;;;;39.75;34.75;;;;;7.01;80.56;100113.25;146617;602;46020;-68
2024/01/16 05:45:57;;;;;;;;;33.50;28.75;;;;;7.08;80.91;100116.28;146616;630;46012;-66
2024/01/16 05:48:54;;;;;;;;;45.75;36.75;;;;;7.12;80.96;100128.53;146621;615;46010;-67
2024/01/16 05:51:49;;;;;;;;;42.75;36.50;;;;;7.15;80.49;100128.69;146618;565;46016;-67
2024/01/16 05:54:59;;;;;;;;;51.50;41.00;;;;;7.17;80.03;100128.78;146621;584;46010;-66
2024/01/16 05:58:14;;;;;;;;;57.00;45.50;;;;;5.61;79.07;99871.09;146619;590;46012;-66
2024/01/16 06:01:12;;;;;;;;;59.75;46.00;;;;;7.19;80.58;100145.22;146619;589;46010;-67
2024/01/16 06:04:13;;;;;;;;;58.25;45.50;;;;;7.23;79.87;100152.34;146616;630;46016;-67
2024/01/16 06:07:07;;;;;;;;;57.00;45.00;;;;;7.27;80.07;100150.81;146620;585;47010;-66
2024/01/16 06:10:13;;;;;;;;;54.25;44.00;;;;;7.36;79.54;100156.47;146615;599;46014;-68
2024/01/16 06:13:36;;;;;;;;;57.25;46.00;;;;;6.60;79.67;100016.50;146616;575;46021;-68
2024/01/16 06:16:35;;;;;;;;;51.25;42.25;;;;;7.49;80.47;100153.75;146613;571;46016;-68
2024/01/16 06:19:40;;;;;;;;;58.00;46.00;;;;;6.70;79.39;100004.25;146618;587;46020;-68
2024/01/16 06:22:31;;;;;;;;;65.50;50.25;;;;;7.62;80.15;100143.28;146615;593;46012;-68
2024/01/16 06:25:30;;;;;;;;;60.00;47.75;;;;;7.69;80.39;100152.22;146618;602;46020;-68
2024/01/16 06:28:25;;;;;;;;;64.25;49.75;;;;;7.79;80.09;100166.53;146615;594;46016;-68
2024/01/16 06:31:24;;;;;;;;;64.50;49.50;;;;;7.86;80.15;100166.94;146618;569;47010;-67
2024/01/16 06:34:37;;;;;;;;;181.00;155.75;;;;;7.10;79.06;100027.03;146619;627;47012;-67
2024/01/16 06:37:44;;;;;;;;;136.25;115.75;;;;;8.03;80.15;100185.87;146620;580;47020;-66
2024/01/16 06:40:40;;;;;;;;;71.00;56.50;;;;;8.23;79.89;100191.22;146611;627;46916;-67
2024/01/16 06:43:33;;;;;;;;;64.50;48.75;;;;;8.39;79.53;100191.22;146615;595;46020;-65
2024/01/16 06:46:42;;;;;;;;;62.25;47.50;;;;;8.81;81.61;100203.66;146614;609;46016;-67
2024/01/16 06:49:37;;;;;;;;;74.00;58.75;;;;;9.47;81.32;100195.69;146621;599;46010;-66
2024/01/16 06:52:48;;;;;;;;;66.00;51.00;;;;;9.59;78.73;100080.59;146616;605;47015;-67
2024/01/16 06:55:40;;;;;;;;;65.50;50.00;;;;;11.24;76.71;100216.34;146612;589;47020;-66
2024/01/16 06:58:45;;;;;;;;;61.50;48.25;;;;;11.92;71.77;100215.59;146614;573;47014;-69
2024/01/16 07:01:47;;;;;;;;;59.50;45.75;;;;;12.40;67.59;100225.16;146619;579;46020;-67
2024/01/16 07:04:47;;;;;;;;;60.00;45.75;;;;;12.61;65.00;100222.41;146614;594;47012;-68
2024/01/16 07:07:45;;;;;;;;;52.00;42.25;;;;;12.71;64.90;100232.31;146618;596;46020;-68
2024/01/16 07:10:43;;;;;;;;;59.50;45.50;;;;;12.93;65.13;100233.94;146614;586;46029;-68
2024/01/16 07:13:40;;;;;;;;;57.00;44.00;;;;;13.27;64.95;100216.84;146617;592;46021;-69
2024/01/16 07:16:35;;;;;;;;;49.25;40.00;;;;;13.70;64.97;100226.00;146614;618;46016;-65
2024/01/16 07:19:30;;;;;;;;;48.75;39.75;;;;;14.21;64.13;100226.66;146619;640;46020;-66
2024/01/16 07:22:36;;;;;;;;;50.25;39.00;;;;;14.74;62.33;100224.69;146608;599;48915;-65
2024/01/16 07:25:33;;;;;;;;;46.25;38.00;;;;;15.31;59.26;100230.44;146619;616;46012;-69
2024/01/16 07:28:51;;;;;;;;;50.75;41.25;;;;;15.04;57.41;100107.94;146614;581;47012;-69
2024/01/16 07:31:48;;;;;;;;;45.25;35.25;;;;;15.92;56.97;100226.66;146618;670;47012;-67
2024/01/16 07:34:41;;;;;;;;;43.50;35.50;;;;;16.07;55.07;100228.69;146619;584;46012;-68
2024/01/16 07:37:33;;;;;;;;;48.50;39.25;;;;;16.09;53.44;100227.88;146617;581;46027;-68
2024/01/16 07:40:34;;;;;;;;;46.00;37.50;;;;;15.99;53.70;100230.28;146614;581;46016;-67
2024/01/16 07:43:51;;;;;;;;;;;;;;;;;;;;;
2024/01/16 07:46:59;;;;;;;;;47.00;38.25;;;;;15.59;53.02;100240.69;146610;558;47012;-71
2024/01/16 07:50:07;;;;;;;;;;;;;;;;;;;;;
2024/01/16 07:53:02;;;;;;;;;45.25;37.75;;;;;14.42;55.07;100126.38;146617;563;46012;-70
2024/01/16 07:56:09;;;;;;;;;47.50;39.50;;;;;14.82;56.07;100240.53;146618;613;46020;-70
2024/01/16 07:59:45;;;;;;;;;46.75;35.25;;;;;13.90;58.19;100122.37;146615;706;47012;-69
2024/01/16 08:02:56;;;;;;;;;36.00;31.25;;;;;14.50;58.29;100260.50;146617;615;46020;-68
2024/01/16 08:05:57;;;;;;;;;33.75;29.00;;;;;14.36;59.90;100267.06;146612;575;46916;-70
2024/01/16 08:09:02;;;;;;;;;37.75;32.50;;;;;14.30;60.85;100268.66;146618;563;46020;-70
2024/01/16 08:12:34;;;;;;;;;29.00;24.50;;;;;14.10;61.45;100215.03;146612;577;47013;-70
2024/01/16 08:15:38;;;;;;;;;34.50;29.25;;;;;14.60;60.76;100266.91;146616;585;47010;-71
2024/01/16 08:18:43;;;;;;;;;27.75;24.00;;;;;14.81;60.63;100271.81;146614;576;47013;-70
2024/01/16 08:21:41;;;;;;;;;24.50;21.50;;;;;14.98;60.11;100267.91;146619;598;46020;-69
2024/01/16 08:24:40;;;;;;;;;25.75;23.50;;;;;15.10;58.87;100276.06;146615;615;46017;-70
2024/01/16 08:27:48;;;;;;;;;37.75;31.75;;;;;15.16;58.14;100272.72;146617;639;46021;-70
2024/01/16 08:30:43;;;;;;;;;36.75;28.25;;;;;15.12;58.17;100279.62;146617;613;46012;-70
2024/01/16 08:33:47;;;;;;;;;36.75;32.00;;;;;15.08;58.65;100277.78;146618;605;46021;-70
2024/01/16 08:36:56;;;;;;;;;36.00;30.00;;;;;15.06;59.18;100287.28;146615;600;46016;-70
2024/01/16 08:40:04;;;;;;;;;38.50;35.00;;;;;15.14;60.89;100287.47;146613;663;47010;-70
2024/01/16 08:43:19;;;;;;;;;45.25;36.75;;;;;15.27;59.04;100293.91;146613;599;46016;-70
2024/01/16 08:46:21;;;;;;;;;48.50;38.75;;;;;15.44;58.56;100293.47;146617;678;46020;-70
2024/01/16 08:49:19;;;;;;;;;45.00;36.00;;;;;15.59;58.72;100299.94;146612;572;46922;-69
2024/01/16 08:52:17;;;;;;;;;37.75;32.75;;;;;15.65;57.73;100300.06;146618;631;46020;-70
2024/01/16 08:55:16;;;;;;;;;47.75;39.00;;;;;15.65;58.96;100308.78;146617;565;47012;-70
2024/01/16 08:58:18;;;;;;;;;46.50;36.75;;;;;15.61;59.02;100301.75;146619;689;46010;-69
2024/01/16 09:01:20;;;;;;;;;46.00;36.25;;;;;15.61;59.78;100301.75;146611;719;47012;-70
2024/01/16 09:04:19;;;;;;;;;46.25;37.00;;;;;15.72;59.23;100314.19;146615;608;46029;-70
2024/01/16 09:07:15;;;;;;;;;45.75;36.00;;;;;15.85;59.58;100308.41;146614;581;46012;-70
2024/01/16 09:10:21;;;;;;;;;43.75;34.75;;;;;15.94;59.90;100309.50;146609;591;47010;-70
2024/01/16 09:13:39;;;;;;;;;37.25;31.75;;;;;15.35;60.11;100185.25;146614;640;46916;-70
2024/01/16 09:16:45;;;;;;;;;39.00;31.75;;;;;16.17;59.18;100298.69;146616;575;47010;-70
2024/01/16 09:19:48;;;;;;;;;33.75;30.25;;;;;16.34;58.17;100297.28;146610;592;46012;-71
2024/01/16 09:22:47;;;;;;;;;27.00;25.75;;;;;16.54;58.41;100305.59;146618;631;47010;-70
2024/01/16 09:25:44;;;;;;;;;35.50;29.25;;;;;16.75;57.90;100310.38;146614;564;46017;-71
2024/01/16 09:28:46;;;;;;;;;33.50;29.00;;;;;16.92;57.87;100308.09;146617;652;46020;-69
2024/01/16 09:31:43;;;;;;;;;33.00;29.00;;;;;17.00;57.00;100308.22;146611;573;46012;-69
2024/01/16 09:34:45;;;;;;;;;41.00;33.00;;;;;17.03;57.16;100317.00;146615;580;46010;-70
2024/01/16 09:38:12;;;;;;;;;43.00;34.00;;;;;16.41;57.33;100198.88;146614;613;47012;-70
2024/01/16 09:41:12;;;;;;;;;32.75;29.25;;;;;17.13;57.03;100318.06;146619;576;46020;-70
2024/01/16 09:44:18;;;;;;;;;38.50;31.00;;;;;17.11;56.39;100318.91;146613;619;46016;-70
2024/01/16 09:47:15;;;;;;;;;29.25;27.75;;;;;17.08;56.75;100319.72;146617;611;46010;-70
2024/01/16 09:50:32;;;;;;;;;34.50;31.00;;;;;17.15;56.91;100323.34;146613;570;46016;-69
2024/01/16 09:53:37;;;;;;;;;34.25;30.00;;;;;17.34;56.63;100324.56;146620;577;46010;-70
2024/01/16 09:56:45;;;;;;;;;26.50;23.25;;;;;17.47;54.28;100313.41;146618;591;46017;-69
2024/01/16 09:59:46;;;;;;;;;42.00;35.00;;;;;17.48;55.28;100317.81;146617;589;46020;-70
2024/01/16 10:02:49;;;;;;;;;42.25;34.75;;;;;17.44;55.05;100314.22;146612;626;46033;-70
2024/01/16 10:05:52;;;;;;;;;42.25;33.75;;;;;17.44;55.96;100324.72;146615;702;47021;-70
2024/01/16 10:08:54;;;;;;;;;42.50;35.25;;;;;17.49;55.22;100324.81;146614;569;46016;-70
2024/01/16 10:11:55;;;;;;;;;39.25;33.25;;;;;17.55;54.49;100323.16;146617;579;46021;-70
2024/01/16 10:15:05;;;;;;;;;37.50;31.00;;;;;17.58;54.95;100319.72;146605;595;47922;-70
2024/01/16 10:18:08;;;;;;;;;29.25;28.00;;;;;17.64;55.05;100314.59;146612;664;46010;-72
2024/01/16 10:21:07;;;;;;;;;28.00;25.50;;;;;17.75;53.84;100319.97;146615;569;46918;-70
2024/01/16 10:24:22;;;;;;;;;25.25;24.75;;;;;17.80;54.79;100310.50;146616;565;47013;-70
2024/01/16 10:27:32;;;;;;;;;20.75;19.00;;;;;17.65;55.73;100286.62;146614;579;47016;-70
2024/01/16 10:30:45;;;;;;;;;20.25;18.25;;;;;17.90;53.27;100327.25;146620;639;46020;-70
2024/01/16 10:33:51;;;;;;;;;21.00;21.00;;;;;17.11;55.70;100170.47;146614;577;47014;-70
2024/01/16 10:36:47;;;;;;;;;21.75;21.75;;;;;18.09;54.47;100324.03;146613;598;47010;-70
2024/01/16 10:39:41;;;;;;;;;28.00;24.50;;;;;18.25;53.53;100319.88;146618;603;46012;-69
2024/01/16 10:42:48;;;;;;;;;24.50;19.25;;;;;18.36;53.46;100315.66;146618;615;46020;-69
2024/01/16 10:45:49;;;;;;;;;21.75;18.50;;;;;18.39;51.54;100314.81;146610;624;46918;-70
2024/01/16 10:48:50;;;;;;;;;22.00;20.25;;;;;18.41;53.11;100319.22;146615;569;46021;-71
2024/01/16 10:51:47;;;;;;;;;23.50;20.75;;;;;18.46;53.83;100325.41;146615;600;46012;-70
2024/01/16 10:54:50;;;;;;;;;29.75;27.00;;;;;18.56;53.85;100322.91;146617;570;46011;-70
2024/01/16 10:57:44;;;;;;;;;28.50;26.75;;;;;18.61;52.94;100322.09;146614;604;46012;-70
2024/01/16 11:00:53;;;;;;;;;;;;;;;;;;;;;
2024/01/16 11:04:20;;;;;;;;;27.25;23.75;;;;;16.94;55.05;100049.72;146615;635;46033;-70
2024/01/16 11:07:24;;;;;;;;;26.75;23.50;;;;;18.68;54.00;100333.56;146621;742;46010;-70
2024/01/16 11:10:28;;;;;;;;;24.50;22.75;;;;;18.73;52.74;100329.28;146616;605;46013;-70
2024/01/16 11:13:40;;;;;;;;;;;;;;;;;;;;;
2024/01/16 11:16:44;;;;;;;;;27.00;23.75;;;;;18.89;53.20;100325.94;146616;603;46017;-70
2024/01/16 11:19:46;;;;;;;;;26.50;23.50;;;;;19.02;52.12;100326.09;146607;584;46020;-70
2024/01/16 11:22:59;;;;;;;;;25.50;23.75;;;;;19.10;54.17;100327.06;146616;597;46016;-70
2024/01/16 11:26:26;;;;;;;;;24.00;22.25;;;;;19.15;53.62;100325.34;146618;591;46010;-70
2024/01/16 11:29:53;;;;;;;;;27.25;27.00;;;;;18.61;56.10;100218.81;146614;577;46012;-70
2024/01/16 11:32:55;;;;;;;;;19.25;17.75;;;;;19.39;52.75;100328.19;146619;574;46010;-69
2024/01/16 11:36:04;;;;;;;;;27.25;23.25;;;;;19.60;52.57;100316.13;146614;632;47012;-71
2024/01/16 11:39:11;;;;;;;;;29.50;27.00;;;;;19.79;51.29;100320.69;146614;575;47011;-70
2024/01/16 11:42:13;;;;;;;;;22.25;20.25;;;;;19.97;50.97;100324.28;146614;584;47016;-70
2024/01/16 11:45:55;;;;;;;;;26.50;21.50;;;;;19.23;54.05;100168.59;146615;567;46020;-70
2024/01/16 11:49:27;;;;;;;;;26.00;23.00;;;;;20.22;51.89;100315.69;146613;790;46016;-71
2024/01/16 11:52:52;;;;;;;;;27.50;26.50;;;;;19.63;51.69;100208.31;146611;648;46022;-70
2024/01/16 11:56:30;;;;;;;;;27.75;23.25;;;;;19.60;53.02;100206.53;146608;579;47917;-70
2024/01/16 12:00:21;;;;;;;;;27.25;27.00;;;;;19.01;52.00;100099.25;146619;575;46020;-72
2024/01/16 12:03:24;;;;;;;;;28.50;27.25;;;;;20.27;50.86;100316.56;146612;606;48025;-71
2024/01/16 12:06:33;;;;;;;;;32.75;28.50;;;;;19.69;51.01;100216.28;146620;614;47010;-70
2024/01/16 12:09:32;;;;;;;;;29.25;27.50;;;;;20.34;49.52;100319.25;146616;605;46012;-70
2024/01/16 12:12:33;;;;;;;;;33.00;28.75;;;;;20.38;49.70;100319.28;146618;606;47010;-71
2024/01/16 12:15:34;;;;;;;;;31.25;29.00;;;;;20.44;50.98;100323.69;146614;592;46017;-71
2024/01/16 12:18:33;;;;;;;;;31.75;27.00;;;;;20.45;50.24;100320.19;146617;580;46010;-70
2024/01/16 12:21:32;;;;;;;;;32.75;29.00;;;;;20.54;50.44;100328.16;146618;596;46012;-72
2024/01/16 12:25:13;;;;;;;;;33.50;27.50;;;;;20.68;51.03;100326.44;146614;593;47012;-71
2024/01/16 12:28:17;;;;;;;;;25.75;22.75;;;;;20.82;50.20;100323.88;146615;579;46034;-72
2024/01/16 12:31:14;;;;;;;;;30.75;25.50;;;;;20.96;48.26;100321.25;146608;605;46011;-71
2024/01/16 12:34:23;;;;;;;;;26.50;24.25;;;;;21.12;49.99;100328.34;146613;570;46030;-70
2024/01/16 12:37:33;;;;;;;;;28.75;24.00;;;;;21.23;46.23;100325.72;146618;566;46034;-72
2024/01/16 12:40:34;;;;;;;;;37.00;30.00;;;;;21.29;47.69;100328.34;146611;627;47016;-72
2024/01/16 12:43:39;;;;;;;;;33.00;28.50;;;;;20.68;47.62;100215.78;146617;592;47010;-72
2024/01/16 12:46:45;;;;;;;;;31.00;27.50;;;;;21.41;49.15;100330.16;146616;586;46013;-71
2024/01/16 12:49:53;;;;;;;;;30.75;27.50;;;;;21.54;48.57;100328.41;146618;638;46020;-73
2024/01/16 12:52:50;;;;;;;;;25.25;23.00;;;;;21.69;45.60;100336.34;146612;596;46016;-73
2024/01/16 12:56:06;;;;;;;;;28.50;21.00;;;;;21.69;47.41;100336.34;146615;569;46020;-71
2024/01/16 12:59:19;;;;;;;;;22.75;21.75;;;;;21.71;47.90;100341.59;146615;577;46016;-71
2024/01/16 13:02:17;;;;;;;;;27.00;20.75;;;;;21.83;45.95;100353.03;146617;635;46037;-71
2024/01/16 13:05:14;;;;;;;;;21.50;20.25;;;;;22.03;45.36;100352.16;146619;570;46012;-70
2024/01/16 13:08:22;;;;;;;;;18.50;17.50;;;;;22.14;45.58;100364.41;146619;715;46021;-70
2024/01/16 13:11:58;;;;;;;;;20.00;18.75;;;;;22.28;48.32;100363.56;146613;573;46016;-71
2024/01/16 13:15:02;;;;;;;;;23.50;21.25;;;;;22.45;45.42;100360.88;146616;636;47012;-71
2024/01/16 13:18:08;;;;;;;;;46.25;36.75;;;;;22.60;43.73;100371.38;146614;621;46014;-72
2024/01/16 13:21:09;;;;;;;;;41.25;35.00;;;;;22.67;45.60;100369.59;146619;623;46020;-71
2024/01/16 13:24:13;;;;;;;;;36.50;31.50;;;;;22.80;45.41;100384.50;146612;583;47017;-72
2024/01/16 13:27:19;;;;;;;;;;;;;;;;;;;;;
2024/01/16 13:30:23;;;;;;;;;33.25;29.00;;;;;22.80;42.71;100389.78;146615;643;46014;-71
2024/01/16 13:33:21;;;;;;;;;26.00;22.75;;;;;22.77;45.06;100388.06;146613;584;47012;-71
2024/01/16 13:36:11;;;;;;;;;34.00;29.00;;;;;22.87;44.73;100399.47;146696;569;46023;-70
2024/01/16 13:39:20;;;;;;;;;23.00;21.75;;;;;23.10;46.67;100404.69;146612;606;46016;-70
2024/01/16 13:42:19;;;;;;;;;35.50;29.50;;;;;23.32;41.55;100405.44;146617;644;46021;-71
2024/01/16 13:45:26;;;;;;;;;23.75;22.50;;;;;23.47;44.94;100399.19;146616;645;47012;-71
2024/01/16 13:48:25;;;;;;;;;22.50;20.25;;;;;23.61;42.82;100399.06;146616;603;47010;-70
2024/01/16 13:51:35;;;;;;;;;20.00;18.50;;;;;23.68;43.43;100408.75;146706;572;46014;-70
2024/01/16 13:54:34;;;;;;;;;18.75;17.75;;;;;23.76;41.84;100411.34;146619;644;46018;-70
2024/01/16 13:57:39;;;;;;;;;17.50;14.00;;;;;23.14;44.71;100303.28;146621;571;46024;-71
2024/01/16 14:00:39;;;;;;;;;21.00;20.25;;;;;23.73;41.83;100425.50;146620;583;46012;-70
2024/01/16 14:03:34;;;;;;;;;26.75;22.50;;;;;23.60;42.85;100422.03;146620;577;46021;-70
2024/01/16 14:06:16;;;;;;;;;25.50;23.75;;;;;23.51;40.27;100425.59;146701;565;46012;-70
2024/01/16 14:09:17;;;;;;;;;22.75;21.00;;;;;23.46;41.49;100430.06;146613;605;47016;-71
2024/01/16 14:12:26;;;;;;;;;19.50;19.00;;;;;23.18;44.54;100415.25;146621;582;46011;-71
2024/01/16 14:15:31;;;;;;;;;26.00;26.00;;;;;23.10;44.75;100433.78;146615;639;46016;-71
2024/01/16 14:18:32;;;;;;;;;31.25;27.75;;;;;23.00;44.23;100443.53;146618;606;46020;-71